SFO weather

San Francisco International Airport
San Francisco, California, United States

Public forecast

Using degrees Fahrenheit for public forecast. Weather courtesy of forecast.io.

METAR (pilot weather report)

Retrieved 2019/04/21 11:56 UTC (8 minutes ago):

KSFO 211156Z 27004KT 8SM FEW012 09/07 A3007 RMK AO2 SLP183 VIS LWR W T00890067 10106 20083 53010

TAF (pilot weather forecast)

Retrieved 2019/04/21 12:24 UTC (0 seconds ago):

TAF KSFO 211122Z 2112/2218 26008KT P6SM FEW030 FM211800 32008KT P6SM SKC FM212100 28017KT P6SM FEW030 FM212300 27022G28KT P6SM FEW030 FM220400 28017KT P6SM FEW020 FM221000 29008KT P6SM FEW012